Terminal Aerodrome Forecast
Issued by NWS

Home | Current Version | Previous Version | Text Only | Print | Product List | Glossary On
Versions: 1 2 3 4 5 6 7 8 9 10 11 12 13 14 15 16 17 18 19 20 21 22 23 24 25 26 27 28 29 30 31
000
FTUS45 KSLC 230111 AAA
TAF36U
TAF AMD
K36U 230111Z 2301/2324 27010KT P6SM -SHRA VCTS SCT070CB BKN100
      TEMPO 2301/2303 03020G30KT
     FM230300 01010KT P6SM -RA VCTS BKN050CB OVC080
     FM230700 VRB05KT P6SM -SHRA BKN050 OVC070
     FM231900 29010KT P6SM SCT050 BKN100=

USA.gov is the U.S. government's official web portal to all federal, state and local government web resources and services.